Cheikh El Mokrani — C6WD5 — position and weather

sailwx.info

Track history (hours):
 
Tides and Currents Weather Stations Pressure Air Temp Water Temp Dewpoint Dewpoint Depression Visibility Wind Speed Wind Dir Waves Ship Positions

Cheikh El Mokrani

Last reported at 2016-Dec-04 10:32 UTC. Time now 2016-Dec-07 10:41 UTC.
Position N 39°29' W 000°02'.

Length 220 m; draft 8 m.

Type: Ship (hazmat cat D). MMSI: 309979000.

Date/timePositionNaut miles runAvg speedWind from/ knotsBaromVisibWave heightAir tempDewpointWater temp
2016-Dec-04 10:32N 39°29' W 000°02'1212.1
2016-Dec-04 09:33N 39°37' W 000°12'1 0.1
2016-Dec-03 14:33N 39°38' W 000°13'6 6.2
2016-Dec-03 13:33N 39°34' W 000°07'  
2016-Nov-30 14:07N 40°34' E 003°35'916.2
2016-Nov-30 13:33N 40°39' E 003°25'1616.1
2016-Nov-30 12:33N 40°48' E 003°07'1615.5
2016-Nov-30 11:33N 40°57' E 002°50'1615.5
2016-Nov-30 10:33N 41°05' E 002°33'1413.9
2016-Nov-30 09:32N 41°13' E 002°17'3 0.1
2016-Nov-29 10:18N 41°12' E 002°21'1114.9
2016-Nov-29 09:33N 41°06' E 002°33'1615.8
2016-Nov-29 08:33N 40°57' E 002°50'1616.1
2016-Nov-29 07:33N 40°48' E 003°08'1515.5
2016-Nov-29 06:33N 40°39' E 003°25'  
2016-Nov-25 02:33N 43°15' E 008°53'1313.3
2016-Nov-25 01:33N 43°25' E 009°06'1413.9
2016-Nov-25 00:33N 43°35' E 009°19'1414.0
2016-Nov-24 23:33N 43°45' E 009°32'1414.2
2016-Nov-24 22:33N 43°55' E 009°46'10 9.8
2016-Nov-24 21:33N 44°04' E 009°51'1 0.7
2016-Nov-24 20:31N 44°05' E 009°50'0 0.0
2016-Nov-24 19:31N 44°05' E 009°50'0 0.0
2016-Nov-24 18:31N 44°05' E 009°50'0 0.0
2016-Nov-24 17:31N 44°05' E 009°50'0 0.0
2016-Nov-24 16:31N 44°05' E 009°50'0 0.0
2016-Nov-24 15:28N 44°05' E 009°50'0 0.0
2016-Nov-24 14:31N 44°05' E 009°50'0 0.0
2016-Nov-24 13:25N 44°05' E 009°50'0 0.0
2016-Nov-24 12:31N 44°05' E 009°50'0 0.0
2016-Nov-24 11:31N 44°05' E 009°50'  
Track history (hours):
 
Tides and Currents Weather Stations Pressure Air Temp Water Temp Dewpoint Dewpoint Depression Visibility Wind Speed Wind Dir Waves Ship Positions

Cheikh El Mokrani

Last reported at 2016-Dec-04 10:32 UTC. Time now 2016-Dec-07 10:41 UTC.
Position N 39°29' W 000°02'.

Length 220 m; draft 8 m.

Type: Ship (hazmat cat D). MMSI: 309979000.

Date/timePositionNaut miles runAvg speedWind from/ knotsBaromVisibWave heightAir tempDewpointWater temp
2016-Dec-04 10:32N 39°29' W 000°02'1212.1
2016-Dec-04 09:33N 39°37' W 000°12'1 0.1
2016-Dec-03 14:33N 39°38' W 000°13'6 6.2
2016-Dec-03 13:33N 39°34' W 000°07'  
2016-Nov-30 14:07N 40°34' E 003°35'916.2
2016-Nov-30 13:33N 40°39' E 003°25'1616.1
2016-Nov-30 12:33N 40°48' E 003°07'1615.5
2016-Nov-30 11:33N 40°57' E 002°50'1615.5
2016-Nov-30 10:33N 41°05' E 002°33'1413.9
2016-Nov-30 09:32N 41°13' E 002°17'3 0.1
2016-Nov-29 10:18N 41°12' E 002°21'1114.9
2016-Nov-29 09:33N 41°06' E 002°33'1615.8
2016-Nov-29 08:33N 40°57' E 002°50'1616.1
2016-Nov-29 07:33N 40°48' E 003°08'1515.5
2016-Nov-29 06:33N 40°39' E 003°25'  
2016-Nov-25 02:33N 43°15' E 008°53'1313.3
2016-Nov-25 01:33N 43°25' E 009°06'1413.9
2016-Nov-25 00:33N 43°35' E 009°19'1414.0
2016-Nov-24 23:33N 43°45' E 009°32'1414.2
2016-Nov-24 22:33N 43°55' E 009°46'10 9.8
2016-Nov-24 21:33N 44°04' E 009°51'1 0.7
2016-Nov-24 20:31N 44°05' E 009°50'0 0.0
2016-Nov-24 19:31N 44°05' E 009°50'0 0.0
2016-Nov-24 18:31N 44°05' E 009°50'0 0.0
2016-Nov-24 17:31N 44°05' E 009°50'0 0.0
2016-Nov-24 16:31N 44°05' E 009°50'0 0.0
2016-Nov-24 15:28N 44°05' E 009°50'0 0.0
2016-Nov-24 14:31N 44°05' E 009°50'0 0.0
2016-Nov-24 13:25N 44°05' E 009°50'0 0.0
2016-Nov-24 12:31N 44°05' E 009°50'0 0.0
2016-Nov-24 11:31N 44°05' E 009°50'  

Dump ship's entire track history